sensor_id;sensor_type;location;lat;lon;timestamp;P1;durP1;ratioP1;P2;durP2;ratioP2
8042;SDS011;4064;48.132;11.366;2023-07-13T00:01:48;5.20;;;4.30;;
8042;SDS011;4064;48.132;11.366;2023-07-13T00:04:18;4.17;;;3.77;;
8042;SDS011;4064;48.132;11.366;2023-07-13T00:06:45;6.27;;;5.50;;
8042;SDS011;4064;48.132;11.366;2023-07-13T00:09:15;5.60;;;4.00;;
8042;SDS011;4064;48.132;11.366;2023-07-13T00:11:42;4.23;;;3.83;;
8042;SDS011;4064;48.132;11.366;2023-07-13T00:14:09;4.30;;;3.40;;
8042;SDS011;4064;48.132;11.366;2023-07-13T00:16:36;5.73;;;3.63;;
8042;SDS011;4064;48.132;11.366;2023-07-13T00:19:03;4.30;;;3.73;;
8042;SDS011;4064;48.132;11.366;2023-07-13T00:21:30;4.80;;;4.00;;
8042;SDS011;4064;48.132;11.366;2023-07-13T00:23:56;4.00;;;3.20;;
8042;SDS011;4064;48.132;11.366;2023-07-13T00:26:22;4.93;;;3.90;;
8042;SDS011;4064;48.132;11.366;2023-07-13T00:28:48;5.27;;;4.37;;
8042;SDS011;4064;48.132;11.366;2023-07-13T00:31:15;5.57;;;3.83;;
8042;SDS011;4064;48.132;11.366;2023-07-13T00:33:41;5.00;;;3.67;;
8042;SDS011;4064;48.132;11.366;2023-07-13T00:36:07;4.47;;;3.50;;
8042;SDS011;4064;48.132;11.366;2023-07-13T00:38:33;3.63;;;3.33;;
8042;SDS011;4064;48.132;11.366;2023-07-13T00:40:59;3.77;;;3.37;;
8042;SDS011;4064;48.132;11.366;2023-07-13T00:43:26;3.83;;;3.50;;
8042;SDS011;4064;48.132;11.366;2023-07-13T00:48:20;3.70;;;3.40;;
8042;SDS011;4064;48.132;11.366;2023-07-13T00:50:48;4.37;;;3.50;;
8042;SDS011;4064;48.132;11.366;2023-07-13T00:53:18;4.10;;;3.70;;
8042;SDS011;4064;48.132;11.366;2023-07-13T00:55:45;4.50;;;4.10;;
8042;SDS011;4064;48.132;11.366;2023-07-13T00:58:13;3.90;;;3.47;;
8042;SDS011;4064;48.132;11.366;2023-07-13T01:00:39;3.47;;;3.17;;
8042;SDS011;4064;48.132;11.366;2023-07-13T01:03:05;3.77;;;3.40;;
8042;SDS011;4064;48.132;11.366;2023-07-13T01:05:32;4.10;;;3.70;;
8042;SDS011;4064;48.132;11.366;2023-07-13T01:07:59;4.43;;;3.63;;
8042;SDS011;4064;48.132;11.366;2023-07-13T01:10:26;3.23;;;2.90;;
8042;SDS011;4064;48.132;11.366;2023-07-13T01:12:53;3.10;;;2.80;;
8042;SDS011;4064;48.132;11.366;2023-07-13T01:15:36;4.13;;;3.70;;
8042;SDS011;4064;48.132;11.366;2023-07-13T01:18:02;3.70;;;3.33;;
8042;SDS011;4064;48.132;11.366;2023-07-13T01:20:33;5.07;;;3.80;;
8042;SDS011;4064;48.132;11.366;2023-07-13T01:23:10;7.43;;;3.80;;
8042;SDS011;4064;48.132;11.366;2023-07-13T01:25:38;3.47;;;2.80;;
8042;SDS011;4064;48.132;11.366;2023-07-13T01:28:07;3.87;;;3.30;;
8042;SDS011;4064;48.132;11.366;2023-07-13T01:30:34;3.30;;;3.00;;
8042;SDS011;4064;48.132;11.366;2023-07-13T01:33:03;4.60;;;3.00;;
8042;SDS011;4064;48.132;11.366;2023-07-13T01:35:29;8.43;;;5.47;;
8042;SDS011;4064;48.132;11.366;2023-07-13T01:37:55;6.47;;;3.30;;
8042;SDS011;4064;48.132;11.366;2023-07-13T01:40:22;4.30;;;3.57;;
8042;SDS011;4064;48.132;11.366;2023-07-13T01:42:48;3.30;;;3.00;;
8042;SDS011;4064;48.132;11.366;2023-07-13T01:45:14;5.83;;;3.67;;
8042;SDS011;4064;48.132;11.366;2023-07-13T01:47:39;6.77;;;3.87;;
8042;SDS011;4064;48.132;11.366;2023-07-13T01:50:05;11.00;;;3.90;;
8042;SDS011;4064;48.132;11.366;2023-07-13T01:52:31;3.13;;;2.83;;
8042;SDS011;4064;48.132;11.366;2023-07-13T01:54:57;5.10;;;3.83;;
8042;SDS011;4064;48.132;11.366;2023-07-13T01:57:22;3.40;;;3.10;;
8042;SDS011;4064;48.132;11.366;2023-07-13T01:59:48;4.67;;;3.50;;
8042;SDS011;4064;48.132;11.366;2023-07-13T02:02:14;4.70;;;3.23;;
8042;SDS011;4064;48.132;11.366;2023-07-13T02:04:40;3.50;;;3.20;;
8042;SDS011;4064;48.132;11.366;2023-07-13T02:07:06;5.23;;;3.97;;
8042;SDS011;4064;48.132;11.366;2023-07-13T02:09:33;5.57;;;3.40;;
8042;SDS011;4064;48.132;11.366;2023-07-13T02:11:58;3.30;;;3.00;;
8042;SDS011;4064;48.132;11.366;2023-07-13T02:14:24;4.63;;;3.70;;
8042;SDS011;4064;48.132;11.366;2023-07-13T02:16:50;5.07;;;4.40;;
8042;SDS011;4064;48.132;11.366;2023-07-13T02:19:16;4.23;;;3.57;;
8042;SDS011;4064;48.132;11.366;2023-07-13T02:21:41;4.93;;;3.97;;
8042;SDS011;4064;48.132;11.366;2023-07-13T02:24:07;4.37;;;3.97;;
8042;SDS011;4064;48.132;11.366;2023-07-13T02:26:34;5.20;;;3.50;;
8042;SDS011;4064;48.132;11.366;2023-07-13T02:29:01;4.73;;;3.93;;
8042;SDS011;4064;48.132;11.366;2023-07-13T02:31:26;6.47;;;5.10;;
8042;SDS011;4064;48.132;11.366;2023-07-13T02:33:52;5.87;;;5.00;;
8042;SDS011;4064;48.132;11.366;2023-07-13T02:36:18;5.97;;;4.47;;
8042;SDS011;4064;48.132;11.366;2023-07-13T02:38:44;5.73;;;5.00;;
8042;SDS011;4064;48.132;11.366;2023-07-13T02:41:10;9.17;;;5.07;;
8042;SDS011;4064;48.132;11.366;2023-07-13T02:43:37;5.73;;;4.73;;
8042;SDS011;4064;48.132;11.366;2023-07-13T02:46:03;6.13;;;5.00;;
8042;SDS011;4064;48.132;11.366;2023-07-13T02:48:35;5.67;;;4.20;;
8042;SDS011;4064;48.132;11.366;2023-07-13T02:51:02;4.30;;;3.90;;
8042;SDS011;4064;48.132;11.366;2023-07-13T02:53:28;5.60;;;4.30;;
8042;SDS011;4064;48.132;11.366;2023-07-13T02:55:53;4.80;;;4.00;;
8042;SDS011;4064;48.132;11.366;2023-07-13T02:58:19;3.60;;;3.20;;
8042;SDS011;4064;48.132;11.366;2023-07-13T03:00:46;4.10;;;3.33;;
8042;SDS011;4064;48.132;11.366;2023-07-13T03:03:12;4.13;;;3.63;;
8042;SDS011;4064;48.132;11.366;2023-07-13T03:05:40;3.17;;;2.80;;
8042;SDS011;4064;48.132;11.366;2023-07-13T03:08:07;7.17;;;2.93;;
8042;SDS011;4064;48.132;11.366;2023-07-13T03:10:33;4.63;;;2.87;;
8042;SDS011;4064;48.132;11.366;2023-07-13T03:12:59;3.87;;;3.27;;
8042;SDS011;4064;48.132;11.366;2023-07-13T03:15:25;3.50;;;2.83;;
8042;SDS011;4064;48.132;11.366;2023-07-13T03:17:51;3.73;;;3.10;;
8042;SDS011;4064;48.132;11.366;2023-07-13T03:20:17;6.73;;;3.10;;
8042;SDS011;4064;48.132;11.366;2023-07-13T03:22:44;3.00;;;2.70;;
8042;SDS011;4064;48.132;11.366;2023-07-13T03:25:10;4.03;;;3.53;;
8042;SDS011;4064;48.132;11.366;2023-07-13T03:27:36;5.60;;;4.17;;
8042;SDS011;4064;48.132;11.366;2023-07-13T03:30:03;3.17;;;2.80;;
8042;SDS011;4064;48.132;11.366;2023-07-13T03:32:29;7.50;;;3.23;;
8042;SDS011;4064;48.132;11.366;2023-07-13T03:34:55;5.43;;;3.37;;
8042;SDS011;4064;48.132;11.366;2023-07-13T03:37:21;6.80;;;3.90;;
8042;SDS011;4064;48.132;11.366;2023-07-13T03:39:46;4.67;;;3.97;;
8042;SDS011;4064;48.132;11.366;2023-07-13T03:42:12;4.90;;;3.70;;
8042;SDS011;4064;48.132;11.366;2023-07-13T03:44:39;8.40;;;4.00;;
8042;SDS011;4064;48.132;11.366;2023-07-13T03:47:06;4.80;;;3.33;;
8042;SDS011;4064;48.132;11.366;2023-07-13T03:49:33;5.33;;;4.00;;
8042;SDS011;4064;48.132;11.366;2023-07-13T03:52:00;8.50;;;4.00;;
8042;SDS011;4064;48.132;11.366;2023-07-13T03:54:26;7.70;;;4.13;;
8042;SDS011;4064;48.132;11.366;2023-07-13T03:56:52;4.73;;;4.30;;
8042;SDS011;4064;48.132;11.366;2023-07-13T03:59:17;4.90;;;4.00;;
8042;SDS011;4064;48.132;11.366;2023-07-13T04:01:43;5.00;;;3.73;;
8042;SDS011;4064;48.132;11.366;2023-07-13T04:04:09;7.43;;;3.47;;
8042;SDS011;4064;48.132;11.366;2023-07-13T04:06:35;4.83;;;3.50;;
8042;SDS011;4064;48.132;11.366;2023-07-13T04:09:02;6.07;;;3.60;;
8042;SDS011;4064;48.132;11.366;2023-07-13T04:11:33;4.40;;;3.90;;
8042;SDS011;4064;48.132;11.366;2023-07-13T04:14:01;4.83;;;4.13;;
8042;SDS011;4064;48.132;11.366;2023-07-13T04:16:27;4.53;;;4.07;;
8042;SDS011;4064;48.132;11.366;2023-07-13T04:18:53;3.60;;;2.87;;
8042;SDS011;4064;48.132;11.366;2023-07-13T04:21:22;4.70;;;4.20;;
8042;SDS011;4064;48.132;11.366;2023-07-13T04:23:48;4.83;;;3.33;;
8042;SDS011;4064;48.132;11.366;2023-07-13T04:26:14;4.40;;;3.30;;
8042;SDS011;4064;48.132;11.366;2023-07-13T04:28:39;6.73;;;3.67;;
8042;SDS011;4064;48.132;11.366;2023-07-13T04:31:05;4.50;;;2.57;;
8042;SDS011;4064;48.132;11.366;2023-07-13T04:33:31;5.00;;;3.40;;
8042;SDS011;4064;48.132;11.366;2023-07-13T04:35:57;3.43;;;3.13;;
8042;SDS011;4064;48.132;11.366;2023-07-13T04:38:25;4.70;;;3.80;;
8042;SDS011;4064;48.132;11.366;2023-07-13T04:40:54;3.93;;;3.23;;
8042;SDS011;4064;48.132;11.366;2023-07-13T04:43:21;4.03;;;3.10;;
8042;SDS011;4064;48.132;11.366;2023-07-13T04:45:47;4.40;;;3.27;;
8042;SDS011;4064;48.132;11.366;2023-07-13T04:48:13;6.30;;;2.90;;
8042;SDS011;4064;48.132;11.366;2023-07-13T04:50:39;4.43;;;3.73;;
8042;SDS011;4064;48.132;11.366;2023-07-13T04:53:05;4.40;;;3.20;;
8042;SDS011;4064;48.132;11.366;2023-07-13T04:55:31;3.70;;;3.10;;
8042;SDS011;4064;48.132;11.366;2023-07-13T04:57:57;3.83;;;3.10;;
8042;SDS011;4064;48.132;11.366;2023-07-13T05:00:27;4.77;;;2.80;;
8042;SDS011;4064;48.132;11.366;2023-07-13T05:02:57;3.33;;;3.03;;
8042;SDS011;4064;48.132;11.366;2023-07-13T05:05:23;5.03;;;3.50;;
8042;SDS011;4064;48.132;11.366;2023-07-13T05:07:51;5.00;;;3.57;;
8042;SDS011;4064;48.132;11.366;2023-07-13T05:10:17;3.80;;;3.33;;
8042;SDS011;4064;48.132;11.366;2023-07-13T05:12:43;3.33;;;2.90;;
8042;SDS011;4064;48.132;11.366;2023-07-13T05:15:09;7.20;;;3.13;;
8042;SDS011;4064;48.132;11.366;2023-07-13T05:17:35;3.43;;;3.03;;
8042;SDS011;4064;48.132;11.366;2023-07-13T05:20:04;4.93;;;3.67;;
8042;SDS011;4064;48.132;11.366;2023-07-13T05:22:30;6.20;;;3.23;;
8042;SDS011;4064;48.132;11.366;2023-07-13T05:24:56;5.27;;;2.97;;
8042;SDS011;4064;48.132;11.366;2023-07-13T05:27:22;3.50;;;3.20;;
8042;SDS011;4064;48.132;11.366;2023-07-13T05:29:48;5.03;;;3.20;;
8042;SDS011;4064;48.132;11.366;2023-07-13T05:32:14;3.67;;;2.83;;
8042;SDS011;4064;48.132;11.366;2023-07-13T05:34:40;4.23;;;3.10;;
8042;SDS011;4064;48.132;11.366;2023-07-13T05:37:07;4.27;;;3.00;;
8042;SDS011;4064;48.132;11.366;2023-07-13T05:39:34;5.20;;;3.70;;
8042;SDS011;4064;48.132;11.366;2023-07-13T05:42:00;4.70;;;3.10;;
8042;SDS011;4064;48.132;11.366;2023-07-13T05:44:26;5.67;;;3.70;;
8042;SDS011;4064;48.132;11.366;2023-07-13T05:46:52;3.13;;;2.83;;
8042;SDS011;4064;48.132;11.366;2023-07-13T05:49:17;5.00;;;4.47;;
8042;SDS011;4064;48.132;11.366;2023-07-13T05:51:43;4.50;;;2.90;;
8042;SDS011;4064;48.132;11.366;2023-07-13T05:54:09;3.77;;;2.90;;
8042;SDS011;4064;48.132;11.366;2023-07-13T05:56:35;3.60;;;3.27;;
8042;SDS011;4064;48.132;11.366;2023-07-13T05:59:01;4.17;;;3.27;;
8042;SDS011;4064;48.132;11.366;2023-07-13T06:01:27;4.10;;;3.70;;
8042;SDS011;4064;48.132;11.366;2023-07-13T06:03:52;5.23;;;2.63;;
8042;SDS011;4064;48.132;11.366;2023-07-13T06:06:18;5.90;;;3.47;;
8042;SDS011;4064;48.132;11.366;2023-07-13T06:08:44;3.30;;;3.00;;
8042;SDS011;4064;48.132;11.366;2023-07-13T06:11:20;4.43;;;3.27;;
8042;SDS011;4064;48.132;11.366;2023-07-13T06:13:47;6.70;;;3.10;;
8042;SDS011;4064;48.132;11.366;2023-07-13T06:16:14;2.87;;;2.60;;
8042;SDS011;4064;48.132;11.366;2023-07-13T06:18:41;7.20;;;3.33;;
8042;SDS011;4064;48.132;11.366;2023-07-13T06:21:11;3.77;;;2.90;;
8042;SDS011;4064;48.132;11.366;2023-07-13T06:23:39;3.63;;;3.23;;
8042;SDS011;4064;48.132;11.366;2023-07-13T06:26:05;5.23;;;3.13;;
8042;SDS011;4064;48.132;11.366;2023-07-13T06:28:31;6.47;;;3.33;;
8042;SDS011;4064;48.132;11.366;2023-07-13T06:30:58;2.70;;;2.50;;
8042;SDS011;4064;48.132;11.366;2023-07-13T06:33:24;3.90;;;2.70;;
8042;SDS011;4064;48.132;11.366;2023-07-13T06:35:51;4.07;;;3.70;;
8042;SDS011;4064;48.132;11.366;2023-07-13T06:38:16;4.10;;;3.13;;
8042;SDS011;4064;48.132;11.366;2023-07-13T06:40:43;4.30;;;3.07;;
8042;SDS011;4064;48.132;11.366;2023-07-13T06:43:09;3.67;;;2.77;;
8042;SDS011;4064;48.132;11.366;2023-07-13T06:45:35;4.43;;;3.23;;
8042;SDS011;4064;48.132;11.366;2023-07-13T06:48:08;2.80;;;2.60;;
8042;SDS011;4064;48.132;11.366;2023-07-13T06:50:34;4.50;;;2.60;;
8042;SDS011;4064;48.132;11.366;2023-07-13T06:52:59;4.90;;;3.10;;
8042;SDS011;4064;48.132;11.366;2023-07-13T06:55:25;3.70;;;3.17;;
8042;SDS011;4064;48.132;11.366;2023-07-13T06:57:51;4.20;;;3.17;;
8042;SDS011;4064;48.132;11.366;2023-07-13T07:00:17;4.30;;;3.20;;
8042;SDS011;4064;48.132;11.366;2023-07-13T07:02:43;3.53;;;3.00;;
8042;SDS011;4064;48.132;11.366;2023-07-13T07:05:08;4.03;;;3.10;;
8042;SDS011;4064;48.132;11.366;2023-07-13T07:07:34;4.00;;;3.60;;
8042;SDS011;4064;48.132;11.366;2023-07-13T07:10:00;5.80;;;2.93;;
8042;SDS011;4064;48.132;11.366;2023-07-13T07:12:26;4.27;;;3.50;;
8042;SDS011;4064;48.132;11.366;2023-07-13T07:14:52;3.80;;;3.20;;
8042;SDS011;4064;48.132;11.366;2023-07-13T07:17:17;6.03;;;3.50;;
8042;SDS011;4064;48.132;11.366;2023-07-13T07:19:43;4.07;;;3.60;;
8042;SDS011;4064;48.132;11.366;2023-07-13T07:22:09;6.13;;;3.27;;
8042;SDS011;4064;48.132;11.366;2023-07-13T07:24:35;4.73;;;3.57;;
8042;SDS011;4064;48.132;11.366;2023-07-13T07:27:00;5.80;;;3.37;;
8042;SDS011;4064;48.132;11.366;2023-07-13T07:29:26;3.43;;;3.03;;
8042;SDS011;4064;48.132;11.366;2023-07-13T07:31:52;3.77;;;3.20;;
8042;SDS011;4064;48.132;11.366;2023-07-13T07:34:18;4.70;;;3.37;;
8042;SDS011;4064;48.132;11.366;2023-07-13T07:36:44;5.70;;;3.67;;
8042;SDS011;4064;48.132;11.366;2023-07-13T07:39:10;3.87;;;3.47;;
8042;SDS011;4064;48.132;11.366;2023-07-13T07:41:36;4.70;;;3.17;;
8042;SDS011;4064;48.132;11.366;2023-07-13T07:44:02;4.10;;;3.70;;
8042;SDS011;4064;48.132;11.366;2023-07-13T07:46:29;4.23;;;3.33;;
8042;SDS011;4064;48.132;11.366;2023-07-13T07:48:55;2.97;;;2.70;;
8042;SDS011;4064;48.132;11.366;2023-07-13T07:51:21;6.10;;;3.70;;
8042;SDS011;4064;48.132;11.366;2023-07-13T07:53:47;6.13;;;4.70;;
8042;SDS011;4064;48.132;11.366;2023-07-13T07:56:13;6.37;;;3.90;;
8042;SDS011;4064;48.132;11.366;2023-07-13T07:58:41;4.83;;;3.20;;
8042;SDS011;4064;48.132;11.366;2023-07-13T08:01:07;5.10;;;2.93;;
8042;SDS011;4064;48.132;11.366;2023-07-13T08:03:33;4.47;;;2.27;;
8042;SDS011;4064;48.132;11.366;2023-07-13T08:05:59;4.00;;;3.60;;
8042;SDS011;4064;48.132;11.366;2023-07-13T08:08:25;5.73;;;3.37;;
8042;SDS011;4064;48.132;11.366;2023-07-13T08:10:51;5.20;;;3.57;;
8042;SDS011;4064;48.132;11.366;2023-07-13T08:13:18;3.93;;;2.93;;
8042;SDS011;4064;48.132;11.366;2023-07-13T08:15:43;4.33;;;2.60;;
8042;SDS011;4064;48.132;11.366;2023-07-13T08:18:09;4.13;;;2.50;;
8042;SDS011;4064;48.132;11.366;2023-07-13T08:20:39;3.00;;;2.70;;
8042;SDS011;4064;48.132;11.366;2023-07-13T08:23:05;3.00;;;2.70;;
8042;SDS011;4064;48.132;11.366;2023-07-13T08:25:31;2.77;;;2.57;;
8042;SDS011;4064;48.132;11.366;2023-07-13T08:27:57;7.87;;;2.73;;
8042;SDS011;4064;48.132;11.366;2023-07-13T08:30:23;3.10;;;2.80;;
8042;SDS011;4064;48.132;11.366;2023-07-13T08:32:49;4.70;;;2.70;;
8042;SDS011;4064;48.132;11.366;2023-07-13T08:35:15;3.40;;;2.00;;
8042;SDS011;4064;48.132;11.366;2023-07-13T08:37:41;3.90;;;2.23;;
8042;SDS011;4064;48.132;11.366;2023-07-13T08:40:11;3.00;;;2.30;;
8042;SDS011;4064;48.132;11.366;2023-07-13T08:42:48;3.87;;;2.07;;
8042;SDS011;4064;48.132;11.366;2023-07-13T08:48:31;2.77;;;2.20;;
8042;SDS011;4064;48.132;11.366;2023-07-13T08:54:32;3.40;;;2.40;;
8042;SDS011;4064;48.132;11.366;2023-07-13T08:57:13;3.47;;;2.40;;
8042;SDS011;4064;48.132;11.366;2023-07-13T08:59:40;3.40;;;2.60;;
8042;SDS011;4064;48.132;11.366;2023-07-13T09:04:49;5.30;;;4.10;;
8042;SDS011;4064;48.132;11.366;2023-07-13T09:07:24;3.77;;;2.47;;
8042;SDS011;4064;48.132;11.366;2023-07-13T09:12:45;6.07;;;2.53;;
8042;SDS011;4064;48.132;11.366;2023-07-13T09:15:31;3.17;;;2.40;;
8042;SDS011;4064;48.132;11.366;2023-07-13T09:18:04;1.93;;;1.83;;
8042;SDS011;4064;48.132;11.366;2023-07-13T09:21:29;2.23;;;2.03;;
8042;SDS011;4064;48.132;11.366;2023-07-13T09:23:47;3.70;;;2.30;;
8042;SDS011;4064;48.132;11.366;2023-07-13T09:26:19;2.70;;;1.77;;
8042;SDS011;4064;48.132;11.366;2023-07-13T09:28:51;2.63;;;1.80;;
8042;SDS011;4064;48.132;11.366;2023-07-13T09:31:29;3.37;;;2.10;;
8042;SDS011;4064;48.132;11.366;2023-07-13T09:34:01;3.10;;;2.03;;
8042;SDS011;4064;48.132;11.366;2023-07-13T09:36:31;5.70;;;2.40;;
8042;SDS011;4064;48.132;11.366;2023-07-13T09:39:04;3.60;;;2.20;;
8042;SDS011;4064;48.132;11.366;2023-07-13T09:41:46;4.63;;;2.43;;
8042;SDS011;4064;48.132;11.366;2023-07-13T09:44:34;4.90;;;2.23;;
8042;SDS011;4064;48.132;11.366;2023-07-13T09:47:01;3.13;;;2.10;;
8042;SDS011;4064;48.132;11.366;2023-07-13T09:49:35;3.13;;;2.30;;
8042;SDS011;4064;48.132;11.366;2023-07-13T09:52:03;2.60;;;2.33;;
8042;SDS011;4064;48.132;11.366;2023-07-13T09:54:35;4.43;;;1.90;;
8042;SDS011;4064;48.132;11.366;2023-07-13T09:57:02;3.80;;;2.23;;
8042;SDS011;4064;48.132;11.366;2023-07-13T09:59:42;4.37;;;2.20;;
8042;SDS011;4064;48.132;11.366;2023-07-13T10:04:53;2.30;;;2.10;;
8042;SDS011;4064;48.132;11.366;2023-07-13T10:07:31;3.57;;;2.10;;
8042;SDS011;4064;48.132;11.366;2023-07-13T10:09:58;3.00;;;1.93;;
8042;SDS011;4064;48.132;11.366;2023-07-13T10:12:26;6.63;;;2.30;;
8042;SDS011;4064;48.132;11.366;2023-07-13T10:14:56;2.87;;;2.03;;
8042;SDS011;4064;48.132;11.366;2023-07-13T10:17:31;3.00;;;2.17;;
8042;SDS011;4064;48.132;11.366;2023-07-13T10:20:02;3.97;;;1.90;;
8042;SDS011;4064;48.132;11.366;2023-07-13T10:25:25;3.30;;;2.10;;
8042;SDS011;4064;48.132;11.366;2023-07-13T10:27:52;2.30;;;1.70;;
8042;SDS011;4064;48.132;11.366;2023-07-13T10:30:33;2.23;;;1.97;;
8042;SDS011;4064;48.132;11.366;2023-07-13T10:33:05;2.10;;;1.83;;
8042;SDS011;4064;48.132;11.366;2023-07-13T10:35:37;2.53;;;2.20;;
8042;SDS011;4064;48.132;11.366;2023-07-13T10:38:07;2.47;;;1.67;;
8042;SDS011;4064;48.132;11.366;2023-07-13T10:43:16;2.53;;;1.90;;
8042;SDS011;4064;48.132;11.366;2023-07-13T10:46:07;2.40;;;2.13;;
8042;SDS011;4064;48.132;11.366;2023-07-13T10:48:35;3.23;;;2.00;;
8042;SDS011;4064;48.132;11.366;2023-07-13T10:51:02;6.50;;;2.57;;
8042;SDS011;4064;48.132;11.366;2023-07-13T10:53:35;3.23;;;2.10;;
8042;SDS011;4064;48.132;11.366;2023-07-13T10:59:01;4.50;;;1.90;;
8042;SDS011;4064;48.132;11.366;2023-07-13T11:01:46;2.23;;;1.77;;
8042;SDS011;4064;48.132;11.366;2023-07-13T11:04:18;4.13;;;1.73;;
8042;SDS011;4064;48.132;11.366;2023-07-13T11:06:46;3.60;;;1.53;;
8042;SDS011;4064;48.132;11.366;2023-07-13T11:09:34;4.60;;;1.77;;
8042;SDS011;4064;48.132;11.366;2023-07-13T11:17:33;2.40;;;1.60;;
8042;SDS011;4064;48.132;11.366;2023-07-13T11:22:49;3.87;;;1.93;;
8042;SDS011;4064;48.132;11.366;2023-07-13T11:28:04;3.47;;;2.00;;
8042;SDS011;4064;48.132;11.366;2023-07-13T11:30:32;2.47;;;1.57;;
8042;SDS011;4064;48.132;11.366;2023-07-13T11:33:03;4.63;;;1.53;;
8042;SDS011;4064;48.132;11.366;2023-07-13T11:35:36;10.10;;;7.43;;
8042;SDS011;4064;48.132;11.366;2023-07-13T11:38:12;4.07;;;2.90;;
8042;SDS011;4064;48.132;11.366;2023-07-13T11:40:44;5.17;;;2.73;;
8042;SDS011;4064;48.132;11.366;2023-07-13T11:43:12;2.67;;;1.70;;
8042;SDS011;4064;48.132;11.366;2023-07-13T11:45:40;2.33;;;1.53;;
8042;SDS011;4064;48.132;11.366;2023-07-13T11:48:23;2.30;;;1.80;;
8042;SDS011;4064;48.132;11.366;2023-07-13T11:50:56;3.80;;;1.80;;
8042;SDS011;4064;48.132;11.366;2023-07-13T11:53:28;3.70;;;1.53;;
8042;SDS011;4064;48.132;11.366;2023-07-13T11:56:00;5.77;;;1.90;;
8042;SDS011;4064;48.132;11.366;2023-07-13T11:58:26;2.53;;;1.63;;
8042;SDS011;4064;48.132;11.366;2023-07-13T12:00:53;2.00;;;1.50;;
8042;SDS011;4064;48.132;11.366;2023-07-13T12:03:22;3.10;;;1.67;;
8042;SDS011;4064;48.132;11.366;2023-07-13T12:06:03;2.53;;;1.80;;
8042;SDS011;4064;48.132;11.366;2023-07-13T12:08:31;5.20;;;1.83;;
8042;SDS011;4064;48.132;11.366;2023-07-13T12:11:04;4.00;;;2.00;;
8042;SDS011;4064;48.132;11.366;2023-07-13T12:13:37;3.80;;;2.17;;
8042;SDS011;4064;48.132;11.366;2023-07-13T12:16:10;4.07;;;1.73;;
8042;SDS011;4064;48.132;11.366;2023-07-13T12:19:00;2.07;;;1.30;;
8042;SDS011;4064;48.132;11.366;2023-07-13T12:21:31;2.60;;;1.70;;
8042;SDS011;4064;48.132;11.366;2023-07-13T12:23:59;2.70;;;1.50;;
8042;SDS011;4064;48.132;11.366;2023-07-13T12:26:29;2.20;;;1.73;;
8042;SDS011;4064;48.132;11.366;2023-07-13T12:28:56;1.80;;;1.40;;
8042;SDS011;4064;48.132;11.366;2023-07-13T12:31:26;2.67;;;1.67;;
8042;SDS011;4064;48.132;11.366;2023-07-13T12:36:31;2.50;;;1.77;;
8042;SDS011;4064;48.132;11.366;2023-07-13T12:39:03;1.50;;;1.37;;
8042;SDS011;4064;48.132;11.366;2023-07-13T12:41:36;2.10;;;1.47;;
8042;SDS011;4064;48.132;11.366;2023-07-13T12:44:02;2.90;;;1.43;;
8042;SDS011;4064;48.132;11.366;2023-07-13T12:46:29;2.87;;;1.27;;
8042;SDS011;4064;48.132;11.366;2023-07-13T12:48:56;2.27;;;1.70;;
8042;SDS011;4064;48.132;11.366;2023-07-13T12:51:26;2.00;;;1.50;;
8042;SDS011;4064;48.132;11.366;2023-07-13T12:54:04;4.10;;;1.80;;
8042;SDS011;4064;48.132;11.366;2023-07-13T12:56:37;1.73;;;1.40;;
8042;SDS011;4064;48.132;11.366;2023-07-13T12:59:03;3.10;;;1.80;;
8042;SDS011;4064;48.132;11.366;2023-07-13T13:01:32;3.10;;;1.30;;
8042;SDS011;4064;48.132;11.366;2023-07-13T13:04:02;3.60;;;1.57;;
8042;SDS011;4064;48.132;11.366;2023-07-13T13:06:38;3.00;;;1.80;;
8042;SDS011;4064;48.132;11.366;2023-07-13T13:09:09;3.10;;;1.43;;
8042;SDS011;4064;48.132;11.366;2023-07-13T13:11:38;3.00;;;1.67;;
8042;SDS011;4064;48.132;11.366;2023-07-13T13:14:05;3.20;;;1.50;;
8042;SDS011;4064;48.132;11.366;2023-07-13T13:16:33;2.07;;;1.47;;
8042;SDS011;4064;48.132;11.366;2023-07-13T13:19:13;3.00;;;2.03;;
8042;SDS011;4064;48.132;11.366;2023-07-13T13:21:44;2.80;;;1.40;;
8042;SDS011;4064;48.132;11.366;2023-07-13T13:24:12;3.17;;;2.10;;
8042;SDS011;4064;48.132;11.366;2023-07-13T13:26:43;1.80;;;1.50;;
8042;SDS011;4064;48.132;11.366;2023-07-13T13:29:13;3.77;;;2.27;;
8042;SDS011;4064;48.132;11.366;2023-07-13T13:31:44;2.70;;;1.30;;
8042;SDS011;4064;48.132;11.366;2023-07-13T13:34:10;1.87;;;1.37;;
8042;SDS011;4064;48.132;11.366;2023-07-13T13:36:39;2.13;;;1.33;;
8042;SDS011;4064;48.132;11.366;2023-07-13T13:39:15;2.73;;;2.00;;
8042;SDS011;4064;48.132;11.366;2023-07-13T13:41:46;2.33;;;1.97;;
8042;SDS011;4064;48.132;11.366;2023-07-13T13:44:14;2.90;;;1.40;;
8042;SDS011;4064;48.132;11.366;2023-07-13T13:46:41;1.60;;;1.47;;
8042;SDS011;4064;48.132;11.366;2023-07-13T13:49:14;2.20;;;1.57;;
8042;SDS011;4064;48.132;11.366;2023-07-13T13:51:42;2.53;;;1.63;;
8042;SDS011;4064;48.132;11.366;2023-07-13T13:54:12;3.87;;;1.30;;
8042;SDS011;4064;48.132;11.366;2023-07-13T13:56:42;1.73;;;1.30;;
8042;SDS011;4064;48.132;11.366;2023-07-13T13:59:09;2.90;;;1.40;;
8042;SDS011;4064;48.132;11.366;2023-07-13T14:01:36;1.43;;;1.10;;
8042;SDS011;4064;48.132;11.366;2023-07-13T14:04:03;3.40;;;1.93;;
8042;SDS011;4064;48.132;11.366;2023-07-13T14:06:30;5.53;;;1.60;;
8042;SDS011;4064;48.132;11.366;2023-07-13T14:08:57;2.33;;;1.60;;
8042;SDS011;4064;48.132;11.366;2023-07-13T14:11:23;3.70;;;1.80;;
8042;SDS011;4064;48.132;11.366;2023-07-13T14:13:59;1.60;;;1.30;;
8042;SDS011;4064;48.132;11.366;2023-07-13T14:16:26;3.33;;;1.77;;
8042;SDS011;4064;48.132;11.366;2023-07-13T14:18:57;2.17;;;1.50;;
8042;SDS011;4064;48.132;11.366;2023-07-13T14:21:25;2.60;;;1.20;;
8042;SDS011;4064;48.132;11.366;2023-07-13T14:23:53;1.90;;;1.43;;
8042;SDS011;4064;48.132;11.366;2023-07-13T14:28:49;5.10;;;1.60;;
8042;SDS011;4064;48.132;11.366;2023-07-13T14:31:17;1.90;;;1.80;;
8042;SDS011;4064;48.132;11.366;2023-07-13T14:33:44;3.00;;;1.37;;
8042;SDS011;4064;48.132;11.366;2023-07-13T14:36:29;1.70;;;1.40;;
8042;SDS011;4064;48.132;11.366;2023-07-13T14:38:57;2.40;;;1.10;;
8042;SDS011;4064;48.132;11.366;2023-07-13T14:41:25;2.40;;;1.60;;
8042;SDS011;4064;48.132;11.366;2023-07-13T14:43:51;1.97;;;1.40;;
8042;SDS011;4064;48.132;11.366;2023-07-13T14:46:30;1.60;;;1.27;;
8042;SDS011;4064;48.132;11.366;2023-07-13T14:49:04;3.93;;;2.03;;
8042;SDS011;4064;48.132;11.366;2023-07-13T14:51:35;2.33;;;1.50;;
8042;SDS011;4064;48.132;11.366;2023-07-13T14:54:03;1.80;;;1.40;;
8042;SDS011;4064;48.132;11.366;2023-07-13T14:56:30;3.40;;;1.50;;
8042;SDS011;4064;48.132;11.366;2023-07-13T14:58:56;1.97;;;1.70;;
8042;SDS011;4064;48.132;11.366;2023-07-13T15:01:22;3.83;;;1.30;;
8042;SDS011;4064;48.132;11.366;2023-07-13T15:03:49;4.13;;;1.50;;
8042;SDS011;4064;48.132;11.366;2023-07-13T15:06:16;2.53;;;1.83;;
8042;SDS011;4064;48.132;11.366;2023-07-13T15:08:44;1.63;;;1.50;;
8042;SDS011;4064;48.132;11.366;2023-07-13T15:11:10;2.40;;;1.60;;
8042;SDS011;4064;48.132;11.366;2023-07-13T15:13:39;2.63;;;1.27;;
8042;SDS011;4064;48.132;11.366;2023-07-13T15:16:23;3.90;;;1.50;;
8042;SDS011;4064;48.132;11.366;2023-07-13T15:18:50;4.50;;;1.67;;
8042;SDS011;4064;48.132;11.366;2023-07-13T15:21:21;2.90;;;1.57;;
8042;SDS011;4064;48.132;11.366;2023-07-13T15:23:49;2.70;;;1.60;;
8042;SDS011;4064;48.132;11.366;2023-07-13T15:26:16;2.23;;;1.83;;
8042;SDS011;4064;48.132;11.366;2023-07-13T15:28:43;2.50;;;1.93;;
8042;SDS011;4064;48.132;11.366;2023-07-13T15:31:23;2.90;;;1.80;;
8042;SDS011;4064;48.132;11.366;2023-07-13T15:33:51;3.83;;;1.60;;
8042;SDS011;4064;48.132;11.366;2023-07-13T15:36:18;3.03;;;1.67;;
8042;SDS011;4064;48.132;11.366;2023-07-13T15:38:45;2.33;;;1.50;;
8042;SDS011;4064;48.132;11.366;2023-07-13T15:41:16;3.93;;;1.60;;
8042;SDS011;4064;48.132;11.366;2023-07-13T15:43:48;2.03;;;1.60;;
8042;SDS011;4064;48.132;11.366;2023-07-13T15:46:16;2.40;;;2.17;;
8042;SDS011;4064;48.132;11.366;2023-07-13T15:48:43;1.90;;;1.60;;
8042;SDS011;4064;48.132;11.366;2023-07-13T15:51:12;2.77;;;2.13;;